createdAt,value
2018-09-03T00:02:23.598Z,22.41
2018-09-03T00:07:27.199Z,22.46
2018-09-03T00:12:30.197Z,22.43
2018-09-03T00:17:33.223Z,22.37
2018-09-03T00:22:36.221Z,22.28
2018-09-03T00:27:39.338Z,22.21
2018-09-03T00:32:48.602Z,22.18
2018-09-03T00:37:57.849Z,22.20
2018-09-03T00:43:06.554Z,22.26
2018-09-03T00:48:09.733Z,22.23
2018-09-03T00:53:13.414Z,22.30
2018-09-03T00:58:18.614Z,22.35
2018-09-03T01:03:22.335Z,22.34
2018-09-03T01:08:26.240Z,22.22
2018-09-03T01:13:29.361Z,22.03
2018-09-03T01:18:36.944Z,21.95
2018-09-03T01:23:40.011Z,21.78
2018-09-03T01:28:43.126Z,21.75
2018-09-03T01:33:52.197Z,21.74
2018-09-03T01:38:55.624Z,21.72
2018-09-03T01:43:58.829Z,21.49
2018-09-03T01:49:02.144Z,21.43
2018-09-03T01:54:05.402Z,21.46
2018-09-03T01:59:08.395Z,21.36
2018-09-03T02:04:12.060Z,21.35
2018-09-03T02:09:17.242Z,21.32
2018-09-03T02:14:21.701Z,21.26
2018-09-03T02:19:25.556Z,21.25
2018-09-03T02:24:29.118Z,21.20
2018-09-03T02:29:32.134Z,21.23
2018-09-03T02:34:35.101Z,21.21
2018-09-03T02:39:38.045Z,21.21
2018-09-03T02:44:41.545Z,21.15
2018-09-03T02:49:46.154Z,21.04
2018-09-03T02:54:50.982Z,20.91
2018-09-03T02:59:55.062Z,20.78
2018-09-03T03:04:58.703Z,20.74
2018-09-03T03:10:02.095Z,20.72
2018-09-03T03:15:05.732Z,20.73
2018-09-03T03:20:09.377Z,20.74
2018-09-03T03:25:13.444Z,20.75
2018-09-03T03:30:20.636Z,20.68
2018-09-03T03:35:25.184Z,20.56
2018-09-03T03:40:29.031Z,20.53
2018-09-03T03:45:32.381Z,20.52
2018-09-03T03:50:35.803Z,20.60
2018-09-03T03:55:39.208Z,20.61
2018-09-03T04:00:42.591Z,20.62
2018-09-03T04:05:47.318Z,20.58
2018-09-03T04:10:51.419Z,20.55
2018-09-03T04:15:55.193Z,20.45
2018-09-03T04:20:58.598Z,20.47
2018-09-03T04:26:01.950Z,20.51
2018-09-03T04:31:05.357Z,20.55
2018-09-03T04:36:08.883Z,20.52
2018-09-03T04:41:12.353Z,20.50
2018-09-03T04:46:18.226Z,20.44
2018-09-03T04:51:23.241Z,20.40
2018-09-03T04:56:27.657Z,20.31
2018-09-03T05:01:31.255Z,20.38
2018-09-03T05:06:34.682Z,20.28
2018-09-03T05:11:38.079Z,20.28
2018-09-03T05:16:41.462Z,20.37
2018-09-03T05:21:47.126Z,20.35
2018-09-03T05:26:53.229Z,20.32
2018-09-03T05:31:58.303Z,20.30
2018-09-03T05:37:01.727Z,20.29
2018-09-03T05:42:05.626Z,20.30
2018-09-03T05:47:09.115Z,20.37
2018-09-03T05:52:12.584Z,20.50
2018-09-03T05:57:21.858Z,20.66
2018-09-03T06:02:26.754Z,20.78
2018-09-03T06:07:32.192Z,20.81
2018-09-03T06:12:35.832Z,20.90
2018-09-03T06:17:39.096Z,20.98
2018-09-03T06:22:42.435Z,20.95
2018-09-03T06:27:45.822Z,20.78
2018-09-03T06:32:49.252Z,20.78
2018-09-03T06:37:58.945Z,20.71
2018-09-03T06:43:04.761Z,20.85
2018-09-03T06:48:08.184Z,20.94
2018-09-03T06:53:13.942Z,21.03
2018-09-03T06:58:17.371Z,21.00
2018-09-03T07:03:20.832Z,21.23
2018-09-03T07:08:24.423Z,21.48
2018-09-03T07:13:27.782Z,21.66
2018-09-03T07:18:37.021Z,21.73
2018-09-03T07:23:43.745Z,21.70
2018-09-03T07:28:47.321Z,21.86
2018-09-03T07:33:50.807Z,22.09
2018-09-03T07:38:54.233Z,22.05
2018-09-03T07:43:58.520Z,22.25
2018-09-03T07:49:09.021Z,22.53
2018-09-03T07:54:13.755Z,22.79
2018-09-03T07:59:17.240Z,22.66
2018-09-03T08:04:20.624Z,22.83
2018-09-03T08:09:24.188Z,22.78
2018-09-03T08:14:33.137Z,23.32
2018-09-03T08:19:37.991Z,23.46
2018-09-03T08:24:41.392Z,23.64
2018-09-03T08:29:44.967Z,23.47
2018-09-03T08:34:50.253Z,23.46
2018-09-03T08:39:53.545Z,23.76
2018-09-03T08:45:01.607Z,23.96
2018-09-03T08:50:06.961Z,23.76
2018-09-03T08:55:10.685Z,23.79
2018-09-03T09:00:14.080Z,23.77
2018-09-03T09:05:17.447Z,23.97
2018-09-03T09:10:20.974Z,24.29
2018-09-03T09:15:24.334Z,24.07
2018-09-03T09:20:34.877Z,24.25
2018-09-03T09:25:39.583Z,24.79
2018-09-03T09:30:43.004Z,25.17
2018-09-03T09:35:46.707Z,25.28
2018-09-03T09:40:51.156Z,25.66
2018-09-03T09:45:58.331Z,26.10
2018-09-03T09:51:02.590Z,25.84
2018-09-03T09:56:06.163Z,25.95
2018-09-03T10:01:17.549Z,26.12
2018-09-03T10:06:25.974Z,26.31
2018-09-03T10:11:32.066Z,26.24
2018-09-03T10:16:35.580Z,26.54
2018-09-03T10:21:38.967Z,26.96
2018-09-03T10:26:42.381Z,26.95
2018-09-03T10:31:46.094Z,26.49
2018-09-03T10:36:49.549Z,26.54
2018-09-03T10:41:53.606Z,26.64
2018-09-03T10:46:57.010Z,26.83
2018-09-03T10:52:00.438Z,26.80
2018-09-03T10:57:06.947Z,27.02
2018-09-03T11:02:13.477Z,27.45
2018-09-03T11:07:16.994Z,27.68
2018-09-03T11:12:20.457Z,27.87
2018-09-03T11:17:24.795Z,27.99
2018-09-03T11:22:29.047Z,28.57
2018-09-03T11:27:35.477Z,28.81
2018-09-03T11:32:44.489Z,28.79
2018-09-03T11:37:49.676Z,28.90
2018-09-03T11:42:55.169Z,28.43
2018-09-03T11:47:59.828Z,28.85
2018-09-03T11:53:08.354Z,28.57
2018-09-03T11:58:15.227Z,29.05
2018-09-03T12:03:19.614Z,29.44
2018-09-03T12:08:23.162Z,29.31
2018-09-03T12:13:33.698Z,29.00
2018-09-03T12:18:38.997Z,28.91
2018-09-03T12:23:43.135Z,28.81
2018-09-03T12:28:46.370Z,28.95
2018-09-03T12:33:49.860Z,29.29
2018-09-03T12:38:53.246Z,29.49
2018-09-03T12:44:00.292Z,29.36
2018-09-03T12:49:03.810Z,29.08
2018-09-03T12:54:07.937Z,29.38
2018-09-03T12:59:14.488Z,29.00
2018-09-03T13:04:20.729Z,29.44
2018-09-03T13:09:25.589Z,29.49
2018-09-03T13:14:28.990Z,29.54
2018-09-03T13:19:34.058Z,29.68
2018-09-03T13:24:38.673Z,29.62
2018-09-03T13:29:42.609Z,29.93
2018-09-03T13:34:48.549Z,29.95
2018-09-03T13:39:52.702Z,29.73
2018-09-03T13:45:16.630Z,29.58
2018-09-03T13:50:20.046Z,29.39
2018-09-03T13:55:23.404Z,29.60
2018-09-03T14:00:27.441Z,29.59
2018-09-03T14:10:48.454Z,29.62
2018-09-03T14:15:53.015Z,29.71
2018-09-03T14:20:59.672Z,29.83
2018-09-03T14:26:05.246Z,30.22
2018-09-03T14:31:10.648Z,30.41
2018-09-03T14:36:14.058Z,30.39
2018-09-03T14:41:17.590Z,30.70
2018-09-03T14:46:20.972Z,30.46
2018-09-03T14:51:27.276Z,30.46
2018-09-03T14:56:31.729Z,30.66
2018-09-03T15:01:35.801Z,30.75
2018-09-03T15:06:40.110Z,31.15
2018-09-03T15:11:43.467Z,31.36
2018-09-03T15:16:46.931Z,31.40
2018-09-03T15:21:50.333Z,31.38
2018-09-03T15:26:55.908Z,31.55
2018-09-03T15:32:02.532Z,31.87
2018-09-03T15:37:06.455Z,31.86
2018-09-03T15:42:11.566Z,31.75
2018-09-03T15:47:15.019Z,31.67
2018-09-03T15:52:18.843Z,31.32
2018-09-03T15:57:22.381Z,31.42
2018-09-03T16:02:27.647Z,31.21
2018-09-03T16:07:32.674Z,31.41
2018-09-03T16:12:37.114Z,31.33
2018-09-03T16:17:41.882Z,31.47
2018-09-03T16:22:45.301Z,31.75
2018-09-03T16:27:50.516Z,31.62
2018-09-03T16:32:58.073Z,31.26
2018-09-03T16:38:01.696Z,31.19
2018-09-03T16:43:07.329Z,31.15
2018-09-03T16:48:12.003Z,31.00
2018-09-03T16:53:15.524Z,30.79
2018-09-03T16:58:18.909Z,30.73
2018-09-03T17:03:27.806Z,30.78
2018-09-03T17:08:33.054Z,30.84
2018-09-03T17:13:37.091Z,30.87
2018-09-03T17:18:40.406Z,30.84
2018-09-03T17:23:43.813Z,30.64
2018-09-03T17:28:47.227Z,30.49
2018-09-03T17:33:50.627Z,30.34
2018-09-03T17:38:58.805Z,30.22
2018-09-03T17:44:03.651Z,29.78
2018-09-03T17:49:07.295Z,29.38
2018-09-03T17:54:10.730Z,29.12
2018-09-03T17:59:15.573Z,28.91
2018-09-03T18:04:20.182Z,28.55
2018-09-03T18:09:29.279Z,28.58
2018-09-03T18:14:34.977Z,28.50
2018-09-03T18:19:39.679Z,28.35
2018-09-03T18:24:44.763Z,28.30
2018-09-03T18:29:49.448Z,28.23
2018-09-03T18:34:56.886Z,28.17
2018-09-03T18:40:01.010Z,28.16
2018-09-03T18:45:06.225Z,28.10
2018-09-03T18:50:12.544Z,27.97
2018-09-03T18:55:16.431Z,27.81
2018-09-03T19:00:20.595Z,27.73
2018-09-03T19:05:26.245Z,27.71
2018-09-03T19:10:30.325Z,27.57
2018-09-03T19:15:34.366Z,27.50
2018-09-03T19:20:38.718Z,27.24
2018-09-03T19:25:42.608Z,26.96
2018-09-03T19:30:46.601Z,26.87
2018-09-03T19:35:49.996Z,26.92
2018-09-03T19:40:58.888Z,26.97
2018-09-03T19:46:03.596Z,26.95
2018-09-03T19:51:07.976Z,26.94
2018-09-03T19:56:12.467Z,26.96
2018-09-03T20:01:16.121Z,26.98
2018-09-03T20:06:19.644Z,26.96
2018-09-03T20:11:23.071Z,26.95
2018-09-03T20:16:28.192Z,26.92
2018-09-03T20:21:36.805Z,26.86
2018-09-03T20:26:40.834Z,26.67
2018-09-03T20:31:44.325Z,26.06
2018-09-03T20:36:47.754Z,26.49
2018-09-03T20:41:51.204Z,26.31
2018-09-03T20:46:55.017Z,26.15
2018-09-03T20:52:01.074Z,26.00
2018-09-03T20:57:05.787Z,25.90
2018-09-03T21:02:09.965Z,25.84
2018-09-03T21:07:13.807Z,25.81
2018-09-03T21:12:17.238Z,25.82
2018-09-03T21:17:20.613Z,25.75
2018-09-03T21:22:24.003Z,25.74
2018-09-03T21:27:30.200Z,25.60
2018-09-03T21:32:35.408Z,25.57
2018-09-03T21:37:40.684Z,25.52
2018-09-03T21:42:44.185Z,25.51
2018-09-03T21:47:47.648Z,25.25
2018-09-03T21:52:51.074Z,25.06
2018-09-03T21:57:54.550Z,24.86
2018-09-03T22:03:01.555Z,24.69
2018-09-03T22:08:08.233Z,24.57
2018-09-03T22:13:12.023Z,24.46
2018-09-03T22:18:15.533Z,24.36
2018-09-03T22:23:18.982Z,24.15
2018-09-03T22:28:22.424Z,24.08
2018-09-03T22:33:25.793Z,24.02
2018-09-03T22:38:32.462Z,23.96
2018-09-03T22:43:36.966Z,23.68
2018-09-03T22:48:40.893Z,23.68
2018-09-03T22:53:44.338Z,23.54
2018-09-03T22:58:47.750Z,23.36
2018-09-03T23:03:51.142Z,23.27
2018-09-03T23:08:54.575Z,23.23
2018-09-03T23:13:59.103Z,23.17
2018-09-03T23:19:04.820Z,23.20
2018-09-03T23:24:09.709Z,23.04
2018-09-03T23:29:13.171Z,22.91
2018-09-03T23:34:16.597Z,22.69
2018-09-03T23:39:19.990Z,22.61
2018-09-03T23:44:23.757Z,22.54
2018-09-03T23:49:29.245Z,22.45
2018-09-03T23:54:35.533Z,22.30
2018-09-03T23:59:40.107Z,22.30
